sensor_id;sensor_type;location;lat;lon;timestamp;temperature;humidity
11836;DHT22;5977;51.972;7.640;2022-08-21T00:00:59;21.60;79.90
11836;DHT22;5977;51.972;7.640;2022-08-21T00:03:32;21.60;79.90
11836;DHT22;5977;51.972;7.640;2022-08-21T00:06:00;21.50;79.90
11836;DHT22;5977;51.972;7.640;2022-08-21T00:08:28;21.60;80.10
11836;DHT22;5977;51.972;7.640;2022-08-21T00:10:56;21.70;79.90
11836;DHT22;5977;51.972;7.640;2022-08-21T00:13:24;21.50;80.90
11836;DHT22;5977;51.972;7.640;2022-08-21T00:15:54;21.70;80.40
11836;DHT22;5977;51.972;7.640;2022-08-21T00:18:22;21.70;80.60
11836;DHT22;5977;51.972;7.640;2022-08-21T00:20:50;21.50;80.90
11836;DHT22;5977;51.972;7.640;2022-08-21T00:23:19;21.50;81.40
11836;DHT22;5977;51.972;7.640;2022-08-21T00:25:47;21.30;82.30
11836;DHT22;5977;51.972;7.640;2022-08-21T00:28:15;21.50;82.00
11836;DHT22;5977;51.972;7.640;2022-08-21T00:30:43;21.50;82.10
11836;DHT22;5977;51.972;7.640;2022-08-21T00:33:12;21.60;82.00
11836;DHT22;5977;51.972;7.640;2022-08-21T00:35:42;21.40;82.70
11836;DHT22;5977;51.972;7.640;2022-08-21T00:38:10;21.30;83.40
11836;DHT22;5977;51.972;7.640;2022-08-21T00:40:46;21.20;83.80
11836;DHT22;5977;51.972;7.640;2022-08-21T00:43:17;21.40;83.80
11836;DHT22;5977;51.972;7.640;2022-08-21T00:45:45;21.00;84.50
11836;DHT22;5977;51.972;7.640;2022-08-21T00:48:15;21.20;86.20
11836;DHT22;5977;51.972;7.640;2022-08-21T00:50:48;21.30;85.20
11836;DHT22;5977;51.972;7.640;2022-08-21T00:53:18;21.30;84.80
11836;DHT22;5977;51.972;7.640;2022-08-21T00:55:46;21.10;85.80
11836;DHT22;5977;51.972;7.640;2022-08-21T00:58:16;21.00;86.80
11836;DHT22;5977;51.972;7.640;2022-08-21T01:00:49;20.90;87.30
11836;DHT22;5977;51.972;7.640;2022-08-21T01:03:21;20.90;88.60
11836;DHT22;5977;51.972;7.640;2022-08-21T01:05:50;21.20;87.70
11836;DHT22;5977;51.972;7.640;2022-08-21T01:08:19;21.30;87.10
11836;DHT22;5977;51.972;7.640;2022-08-21T01:10:48;21.30;86.10
11836;DHT22;5977;51.972;7.640;2022-08-21T01:13:24;21.20;86.60
11836;DHT22;5977;51.972;7.640;2022-08-21T01:15:55;21.00;88.30
11836;DHT22;5977;51.972;7.640;2022-08-21T01:18:25;21.00;88.80
11836;DHT22;5977;51.972;7.640;2022-08-21T01:21:04;20.90;90.20
11836;DHT22;5977;51.972;7.640;2022-08-21T01:23:33;21.20;89.60
11836;DHT22;5977;51.972;7.640;2022-08-21T01:26:02;21.20;89.40
11836;DHT22;5977;51.972;7.640;2022-08-21T01:28:34;21.10;90.30
11836;DHT22;5977;51.972;7.640;2022-08-21T01:31:05;21.00;90.10
11836;DHT22;5977;51.972;7.640;2022-08-21T01:33:35;21.00;90.80
11836;DHT22;5977;51.972;7.640;2022-08-21T01:36:05;20.90;91.60
11836;DHT22;5977;51.972;7.640;2022-08-21T01:38:33;21.10;91.10
11836;DHT22;5977;51.972;7.640;2022-08-21T01:41:01;21.30;90.80
11836;DHT22;5977;51.972;7.640;2022-08-21T01:43:29;21.30;90.50
11836;DHT22;5977;51.972;7.640;2022-08-21T01:46:05;21.20;90.30
11836;DHT22;5977;51.972;7.640;2022-08-21T01:48:34;21.20;90.90
11836;DHT22;5977;51.972;7.640;2022-08-21T01:51:03;21.10;90.80
11836;DHT22;5977;51.972;7.640;2022-08-21T01:53:32;21.00;91.00
11836;DHT22;5977;51.972;7.640;2022-08-21T01:56:03;21.00;91.00
11836;DHT22;5977;51.972;7.640;2022-08-21T01:58:38;21.10;91.40
11836;DHT22;5977;51.972;7.640;2022-08-21T02:01:07;21.10;91.20
11836;DHT22;5977;51.972;7.640;2022-08-21T02:03:37;21.20;91.00
11836;DHT22;5977;51.972;7.640;2022-08-21T02:06:11;21.10;90.70
11836;DHT22;5977;51.972;7.640;2022-08-21T02:08:39;21.10;91.20
11836;DHT22;5977;51.972;7.640;2022-08-21T02:11:07;21.00;91.20
11836;DHT22;5977;51.972;7.640;2022-08-21T02:13:35;21.00;91.50
11836;DHT22;5977;51.972;7.640;2022-08-21T02:16:04;21.00;91.60
11836;DHT22;5977;51.972;7.640;2022-08-21T02:18:33;21.10;91.40
11836;DHT22;5977;51.972;7.640;2022-08-21T02:21:02;20.80;91.90
11836;DHT22;5977;51.972;7.640;2022-08-21T02:23:31;20.90;92.00
11836;DHT22;5977;51.972;7.640;2022-08-21T02:26:01;20.90;91.90
11836;DHT22;5977;51.972;7.640;2022-08-21T02:28:30;20.80;92.00
11836;DHT22;5977;51.972;7.640;2022-08-21T02:30:58;20.80;92.20
11836;DHT22;5977;51.972;7.640;2022-08-21T02:33:26;20.80;92.20
11836;DHT22;5977;51.972;7.640;2022-08-21T02:35:55;20.80;92.60
11836;DHT22;5977;51.972;7.640;2022-08-21T02:38:25;20.80;92.30
11836;DHT22;5977;51.972;7.640;2022-08-21T02:40:55;20.60;92.60
11836;DHT22;5977;51.972;7.640;2022-08-21T02:43:26;20.70;92.40
11836;DHT22;5977;51.972;7.640;2022-08-21T02:45:55;20.60;92.90
11836;DHT22;5977;51.972;7.640;2022-08-21T02:48:25;20.50;93.10
11836;DHT22;5977;51.972;7.640;2022-08-21T02:50:56;20.60;92.60
11836;DHT22;5977;51.972;7.640;2022-08-21T02:53:24;20.60;92.80
11836;DHT22;5977;51.972;7.640;2022-08-21T02:55:55;20.50;92.90
11836;DHT22;5977;51.972;7.640;2022-08-21T02:58:26;20.70;92.30
11836;DHT22;5977;51.972;7.640;2022-08-21T03:00:55;20.50;92.70
11836;DHT22;5977;51.972;7.640;2022-08-21T03:03:23;20.60;92.80
11836;DHT22;5977;51.972;7.640;2022-08-21T03:05:51;20.60;92.50
11836;DHT22;5977;51.972;7.640;2022-08-21T03:08:20;20.60;92.70
11836;DHT22;5977;51.972;7.640;2022-08-21T03:10:51;20.40;92.50
11836;DHT22;5977;51.972;7.640;2022-08-21T03:13:20;20.50;93.60
11836;DHT22;5977;51.972;7.640;2022-08-21T03:15:49;20.30;94.00
11836;DHT22;5977;51.972;7.640;2022-08-21T03:18:17;20.30;93.80
11836;DHT22;5977;51.972;7.640;2022-08-21T03:20:46;20.40;93.90
11836;DHT22;5977;51.972;7.640;2022-08-21T03:23:15;20.40;93.20
11836;DHT22;5977;51.972;7.640;2022-08-21T03:25:46;20.30;93.50
11836;DHT22;5977;51.972;7.640;2022-08-21T03:28:17;20.30;93.60
11836;DHT22;5977;51.972;7.640;2022-08-21T03:30:49;20.40;93.40
11836;DHT22;5977;51.972;7.640;2022-08-21T03:33:18;20.20;93.80
11836;DHT22;5977;51.972;7.640;2022-08-21T03:35:56;20.30;93.60
11836;DHT22;5977;51.972;7.640;2022-08-21T03:38:26;20.10;94.40
11836;DHT22;5977;51.972;7.640;2022-08-21T03:40:54;20.00;94.90
11836;DHT22;5977;51.972;7.640;2022-08-21T03:43:22;20.00;95.60
11836;DHT22;5977;51.972;7.640;2022-08-21T03:45:52;20.10;95.40
11836;DHT22;5977;51.972;7.640;2022-08-21T03:48:20;20.00;95.90
11836;DHT22;5977;51.972;7.640;2022-08-21T03:50:48;19.90;96.10
11836;DHT22;5977;51.972;7.640;2022-08-21T03:53:16;20.00;96.00
11836;DHT22;5977;51.972;7.640;2022-08-21T03:55:45;20.10;95.50
11836;DHT22;5977;51.972;7.640;2022-08-21T03:58:14;20.10;95.60
11836;DHT22;5977;51.972;7.640;2022-08-21T04:00:44;20.30;95.10
11836;DHT22;5977;51.972;7.640;2022-08-21T04:03:13;20.20;95.40
11836;DHT22;5977;51.972;7.640;2022-08-21T04:05:42;19.80;96.30
11836;DHT22;5977;51.972;7.640;2022-08-21T04:08:12;19.70;97.60
11836;DHT22;5977;51.972;7.640;2022-08-21T04:10:40;19.60;98.30
11836;DHT22;5977;51.972;7.640;2022-08-21T04:13:08;19.60;99.70
11836;DHT22;5977;51.972;7.640;2022-08-21T04:15:36;19.70;98.70
11836;DHT22;5977;51.972;7.640;2022-08-21T04:18:04;19.90;98.10
11836;DHT22;5977;51.972;7.640;2022-08-21T04:20:34;20.00;97.50
11836;DHT22;5977;51.972;7.640;2022-08-21T04:23:02;20.00;97.50
11836;DHT22;5977;51.972;7.640;2022-08-21T04:25:31;19.90;97.80
11836;DHT22;5977;51.972;7.640;2022-08-21T04:27:59;19.90;97.50
11836;DHT22;5977;51.972;7.640;2022-08-21T04:30:28;19.80;97.80
11836;DHT22;5977;51.972;7.640;2022-08-21T04:32:57;19.80;97.80
11836;DHT22;5977;51.972;7.640;2022-08-21T04:35:27;19.80;98.20
11836;DHT22;5977;51.972;7.640;2022-08-21T04:37:57;19.80;98.00
11836;DHT22;5977;51.972;7.640;2022-08-21T04:40:27;19.60;99.40
11836;DHT22;5977;51.972;7.640;2022-08-21T04:42:57;19.60;99.40
11836;DHT22;5977;51.972;7.640;2022-08-21T04:45:28;19.80;99.00
11836;DHT22;5977;51.972;7.640;2022-08-21T04:47:58;19.80;98.80
11836;DHT22;5977;51.972;7.640;2022-08-21T04:50:29;19.90;98.30
11836;DHT22;5977;51.972;7.640;2022-08-21T04:53:06;20.00;97.60
11836;DHT22;5977;51.972;7.640;2022-08-21T04:55:34;20.20;97.00
11836;DHT22;5977;51.972;7.640;2022-08-21T04:58:04;20.30;97.10
11836;DHT22;5977;51.972;7.640;2022-08-21T05:00:32;20.10;96.90
11836;DHT22;5977;51.972;7.640;2022-08-21T05:03:01;20.00;97.20
11836;DHT22;5977;51.972;7.640;2022-08-21T05:05:30;20.20;97.10
11836;DHT22;5977;51.972;7.640;2022-08-21T05:08:01;20.20;96.70
11836;DHT22;5977;51.972;7.640;2022-08-21T05:10:31;20.10;96.90
11836;DHT22;5977;51.972;7.640;2022-08-21T05:12:59;20.10;97.50
11836;DHT22;5977;51.972;7.640;2022-08-21T05:15:28;20.10;97.70
11836;DHT22;5977;51.972;7.640;2022-08-21T05:17:56;20.20;97.20
11836;DHT22;5977;51.972;7.640;2022-08-21T05:20:27;20.00;97.90
11836;DHT22;5977;51.972;7.640;2022-08-21T05:22:55;20.10;98.20
11836;DHT22;5977;51.972;7.640;2022-08-21T05:25:24;20.00;99.00
11836;DHT22;5977;51.972;7.640;2022-08-21T05:27:55;20.20;98.00
11836;DHT22;5977;51.972;7.640;2022-08-21T05:30:26;20.50;99.30
11836;DHT22;5977;51.972;7.640;2022-08-21T05:32:56;20.30;99.20
11836;DHT22;5977;51.972;7.640;2022-08-21T05:35:26;20.40;98.20
11836;DHT22;5977;51.972;7.640;2022-08-21T05:37:55;20.20;98.20
11836;DHT22;5977;51.972;7.640;2022-08-21T05:40:23;20.20;99.00
11836;DHT22;5977;51.972;7.640;2022-08-21T05:42:53;20.10;99.20
11836;DHT22;5977;51.972;7.640;2022-08-21T05:45:24;20.10;99.20
11836;DHT22;5977;51.972;7.640;2022-08-21T05:48:11;20.20;99.70
11836;DHT22;5977;51.972;7.640;2022-08-21T05:50:39;20.30;99.40
11836;DHT22;5977;51.972;7.640;2022-08-21T05:53:08;20.00;99.60
11836;DHT22;5977;51.972;7.640;2022-08-21T05:55:37;20.00;99.90
11836;DHT22;5977;51.972;7.640;2022-08-21T05:58:11;20.10;99.90
11836;DHT22;5977;51.972;7.640;2022-08-21T06:00:40;20.30;99.50
11836;DHT22;5977;51.972;7.640;2022-08-21T06:03:11;20.30;98.50
11836;DHT22;5977;51.972;7.640;2022-08-21T06:05:39;20.20;98.90
11836;DHT22;5977;51.972;7.640;2022-08-21T06:08:07;20.40;97.70
11836;DHT22;5977;51.972;7.640;2022-08-21T06:10:35;20.40;98.40
11836;DHT22;5977;51.972;7.640;2022-08-21T06:13:03;20.40;97.80
11836;DHT22;5977;51.972;7.640;2022-08-21T06:15:31;20.50;97.60
11836;DHT22;5977;51.972;7.640;2022-08-21T06:18:01;20.60;96.60
11836;DHT22;5977;51.972;7.640;2022-08-21T06:20:29;20.50;97.10
11836;DHT22;5977;51.972;7.640;2022-08-21T06:22:58;20.90;98.00
11836;DHT22;5977;51.972;7.640;2022-08-21T06:25:26;20.70;97.10
11836;DHT22;5977;51.972;7.640;2022-08-21T06:28:00;20.40;97.70
11836;DHT22;5977;51.972;7.640;2022-08-21T06:30:28;20.60;97.00
11836;DHT22;5977;51.972;7.640;2022-08-21T06:32:56;20.70;96.80
11836;DHT22;5977;51.972;7.640;2022-08-21T06:35:26;20.60;96.30
11836;DHT22;5977;51.972;7.640;2022-08-21T06:37:56;20.60;96.50
11836;DHT22;5977;51.972;7.640;2022-08-21T06:40:24;20.70;96.30
11836;DHT22;5977;51.972;7.640;2022-08-21T06:42:55;20.80;96.10
11836;DHT22;5977;51.972;7.640;2022-08-21T06:45:24;20.90;95.50
11836;DHT22;5977;51.972;7.640;2022-08-21T06:47:58;20.70;95.40
11836;DHT22;5977;51.972;7.640;2022-08-21T06:50:27;20.80;95.60
11836;DHT22;5977;51.972;7.640;2022-08-21T06:53:01;20.60;95.20
11836;DHT22;5977;51.972;7.640;2022-08-21T06:55:29;20.60;95.60
11836;DHT22;5977;51.972;7.640;2022-08-21T06:57:57;20.70;95.30
11836;DHT22;5977;51.972;7.640;2022-08-21T07:00:25;20.90;94.90
11836;DHT22;5977;51.972;7.640;2022-08-21T07:02:53;21.00;93.70
11836;DHT22;5977;51.972;7.640;2022-08-21T07:05:22;21.20;93.20
11836;DHT22;5977;51.972;7.640;2022-08-21T07:07:53;21.30;92.90
11836;DHT22;5977;51.972;7.640;2022-08-21T07:10:22;21.30;92.10
11836;DHT22;5977;51.972;7.640;2022-08-21T07:12:50;21.30;91.90
11836;DHT22;5977;51.972;7.640;2022-08-21T07:15:28;21.50;90.80
11836;DHT22;5977;51.972;7.640;2022-08-21T07:17:56;21.60;90.80
11836;DHT22;5977;51.972;7.640;2022-08-21T07:20:25;21.50;90.10
11836;DHT22;5977;51.972;7.640;2022-08-21T07:22:55;21.70;88.30
11836;DHT22;5977;51.972;7.640;2022-08-21T07:25:24;21.90;87.00
11836;DHT22;5977;51.972;7.640;2022-08-21T07:27:52;21.90;86.20
11836;DHT22;5977;51.972;7.640;2022-08-21T07:30:20;21.80;85.20
11836;DHT22;5977;51.972;7.640;2022-08-21T07:32:48;21.90;83.50
11836;DHT22;5977;51.972;7.640;2022-08-21T07:35:17;21.90;83.50
11836;DHT22;5977;51.972;7.640;2022-08-21T07:37:45;21.90;82.90
11836;DHT22;5977;51.972;7.640;2022-08-21T07:40:16;21.90;82.80
11836;DHT22;5977;51.972;7.640;2022-08-21T07:42:46;21.80;82.50
11836;DHT22;5977;51.972;7.640;2022-08-21T07:45:17;21.90;82.70
11836;DHT22;5977;51.972;7.640;2022-08-21T07:47:46;22.00;82.80
11836;DHT22;5977;51.972;7.640;2022-08-21T07:50:14;22.40;84.40
11836;DHT22;5977;51.972;7.640;2022-08-21T07:52:42;22.90;82.30
11836;DHT22;5977;51.972;7.640;2022-08-21T07:55:14;22.80;82.10
11836;DHT22;5977;51.972;7.640;2022-08-21T07:57:44;23.40;85.70
11836;DHT22;5977;51.972;7.640;2022-08-21T08:00:15;23.90;84.70
11836;DHT22;5977;51.972;7.640;2022-08-21T08:02:45;24.30;84.00
11836;DHT22;5977;51.972;7.640;2022-08-21T08:05:17;24.50;83.50
11836;DHT22;5977;51.972;7.640;2022-08-21T08:07:45;24.80;82.10
11836;DHT22;5977;51.972;7.640;2022-08-21T08:10:14;25.00;78.40
11836;DHT22;5977;51.972;7.640;2022-08-21T08:12:44;25.20;79.50
11836;DHT22;5977;51.972;7.640;2022-08-21T08:15:15;25.40;79.00
11836;DHT22;5977;51.972;7.640;2022-08-21T08:17:44;25.40;77.00
11836;DHT22;5977;51.972;7.640;2022-08-21T08:20:13;25.40;73.80
11836;DHT22;5977;51.972;7.640;2022-08-21T08:22:42;25.50;74.80
11836;DHT22;5977;51.972;7.640;2022-08-21T08:25:16;25.70;75.80
11836;DHT22;5977;51.972;7.640;2022-08-21T08:27:46;25.90;74.80
11836;DHT22;5977;51.972;7.640;2022-08-21T08:30:16;25.70;68.00
11836;DHT22;5977;51.972;7.640;2022-08-21T08:32:47;25.70;70.90
11836;DHT22;5977;51.972;7.640;2022-08-21T08:35:16;26.00;73.10
11836;DHT22;5977;51.972;7.640;2022-08-21T08:37:49;26.20;71.20
11836;DHT22;5977;51.972;7.640;2022-08-21T08:40:21;26.10;67.50
11836;DHT22;5977;51.972;7.640;2022-08-21T08:42:52;26.00;65.60
11836;DHT22;5977;51.972;7.640;2022-08-21T08:45:21;26.00;67.70
11836;DHT22;5977;51.972;7.640;2022-08-21T08:47:53;25.80;64.80
11836;DHT22;5977;51.972;7.640;2022-08-21T08:50:38;26.00;65.90
11836;DHT22;5977;51.972;7.640;2022-08-21T08:53:12;25.90;64.90
11836;DHT22;5977;51.972;7.640;2022-08-21T08:55:43;25.80;66.50
11836;DHT22;5977;51.972;7.640;2022-08-21T08:58:18;25.70;66.20
11836;DHT22;5977;51.972;7.640;2022-08-21T09:00:49;25.70;64.90
11836;DHT22;5977;51.972;7.640;2022-08-21T09:03:18;25.90;67.90
11836;DHT22;5977;51.972;7.640;2022-08-21T09:05:49;26.20;66.60
11836;DHT22;5977;51.972;7.640;2022-08-21T09:08:41;26.50;67.50
11836;DHT22;5977;51.972;7.640;2022-08-21T09:11:23;26.60;64.50
11836;DHT22;5977;51.972;7.640;2022-08-21T09:14:04;26.70;65.20
11836;DHT22;5977;51.972;7.640;2022-08-21T09:16:42;26.80;64.70
11836;DHT22;5977;51.972;7.640;2022-08-21T09:19:28;27.00;63.90
11836;DHT22;5977;51.972;7.640;2022-08-21T09:22:06;27.00;66.20
11836;DHT22;5977;51.972;7.640;2022-08-21T09:24:42;26.90;63.90
11836;DHT22;5977;51.972;7.640;2022-08-21T09:27:19;27.10;65.50
11836;DHT22;5977;51.972;7.640;2022-08-21T09:29:52;27.00;64.40
11836;DHT22;5977;51.972;7.640;2022-08-21T09:32:23;26.70;66.70
11836;DHT22;5977;51.972;7.640;2022-08-21T09:35:07;26.50;62.20
11836;DHT22;5977;51.972;7.640;2022-08-21T09:37:56;26.30;62.70
11836;DHT22;5977;51.972;7.640;2022-08-21T09:40:31;26.50;64.00
11836;DHT22;5977;51.972;7.640;2022-08-21T09:43:01;26.70;63.10
11836;DHT22;5977;51.972;7.640;2022-08-21T09:45:31;26.80;61.60
11836;DHT22;5977;51.972;7.640;2022-08-21T09:48:11;27.00;61.40
11836;DHT22;5977;51.972;7.640;2022-08-21T09:50:40;27.10;61.80
11836;DHT22;5977;51.972;7.640;2022-08-21T09:53:17;27.20;55.70
11836;DHT22;5977;51.972;7.640;2022-08-21T09:55:52;27.20;55.70
11836;DHT22;5977;51.972;7.640;2022-08-21T09:58:39;27.30;57.50
11836;DHT22;5977;51.972;7.640;2022-08-21T10:01:13;27.20;58.80
11836;DHT22;5977;51.972;7.640;2022-08-21T10:03:41;27.40;60.20
11836;DHT22;5977;51.972;7.640;2022-08-21T10:06:19;27.50;59.20
11836;DHT22;5977;51.972;7.640;2022-08-21T10:08:48;27.40;56.50
11836;DHT22;5977;51.972;7.640;2022-08-21T10:11:17;27.30;59.60
11836;DHT22;5977;51.972;7.640;2022-08-21T10:13:53;27.30;59.90
11836;DHT22;5977;51.972;7.640;2022-08-21T10:16:33;27.40;57.30
11836;DHT22;5977;51.972;7.640;2022-08-21T10:19:15;27.40;60.30
11836;DHT22;5977;51.972;7.640;2022-08-21T10:21:59;27.40;60.20
11836;DHT22;5977;51.972;7.640;2022-08-21T10:24:33;27.30;59.10
11836;DHT22;5977;51.972;7.640;2022-08-21T10:27:16;27.40;58.60
11836;DHT22;5977;51.972;7.640;2022-08-21T10:29:51;27.40;58.90
11836;DHT22;5977;51.972;7.640;2022-08-21T10:32:43;27.50;59.80
11836;DHT22;5977;51.972;7.640;2022-08-21T10:35:20;27.60;60.10
11836;DHT22;5977;51.972;7.640;2022-08-21T10:38:01;27.70;60.20
11836;DHT22;5977;51.972;7.640;2022-08-21T10:40:34;27.70;60.50
11836;DHT22;5977;51.972;7.640;2022-08-21T10:43:16;27.70;57.20
11836;DHT22;5977;51.972;7.640;2022-08-21T10:45:55;27.70;58.80
11836;DHT22;5977;51.972;7.640;2022-08-21T10:48:29;27.70;58.30
11836;DHT22;5977;51.972;7.640;2022-08-21T10:51:06;27.70;58.80
11836;DHT22;5977;51.972;7.640;2022-08-21T10:53:47;27.80;59.30
11836;DHT22;5977;51.972;7.640;2022-08-21T10:56:20;27.70;59.50
11836;DHT22;5977;51.972;7.640;2022-08-21T10:59:21;27.70;59.70
11836;DHT22;5977;51.972;7.640;2022-08-21T11:01:56;27.80;59.90
11836;DHT22;5977;51.972;7.640;2022-08-21T11:04:32;27.80;59.40
11836;DHT22;5977;51.972;7.640;2022-08-21T11:07:21;27.80;58.90
11836;DHT22;5977;51.972;7.640;2022-08-21T11:10:06;27.80;58.50
11836;DHT22;5977;51.972;7.640;2022-08-21T11:12:43;27.80;58.10
11836;DHT22;5977;51.972;7.640;2022-08-21T11:15:24;27.80;58.00
11836;DHT22;5977;51.972;7.640;2022-08-21T11:18:02;27.70;59.60
11836;DHT22;5977;51.972;7.640;2022-08-21T11:20:38;27.70;56.80
11836;DHT22;5977;51.972;7.640;2022-08-21T11:23:13;27.70;57.70
11836;DHT22;5977;51.972;7.640;2022-08-21T11:25:47;27.70;58.00
11836;DHT22;5977;51.972;7.640;2022-08-21T11:28:21;27.70;57.50
11836;DHT22;5977;51.972;7.640;2022-08-21T11:30:59;27.70;59.20
11836;DHT22;5977;51.972;7.640;2022-08-21T11:33:41;27.70;57.10
11836;DHT22;5977;51.972;7.640;2022-08-21T11:36:17;27.80;60.10
11836;DHT22;5977;51.972;7.640;2022-08-21T11:38:53;27.80;59.30
11836;DHT22;5977;51.972;7.640;2022-08-21T11:41:29;27.80;59.10
11836;DHT22;5977;51.972;7.640;2022-08-21T11:44:05;27.80;58.50
11836;DHT22;5977;51.972;7.640;2022-08-21T11:46:40;27.80;56.00
11836;DHT22;5977;51.972;7.640;2022-08-21T11:52:16;27.80;58.10
11836;DHT22;5977;51.972;7.640;2022-08-21T11:54:49;27.80;58.60
11836;DHT22;5977;51.972;7.640;2022-08-21T11:57:24;27.70;59.90
11836;DHT22;5977;51.972;7.640;2022-08-21T11:59:58;27.80;59.30
11836;DHT22;5977;51.972;7.640;2022-08-21T12:02:43;27.80;59.80
11836;DHT22;5977;51.972;7.640;2022-08-21T12:05:27;27.80;60.10
11836;DHT22;5977;51.972;7.640;2022-08-21T12:08:06;27.80;60.50
11836;DHT22;5977;51.972;7.640;2022-08-21T12:10:37;27.70;59.80
11836;DHT22;5977;51.972;7.640;2022-08-21T12:13:11;27.80;60.10
11836;DHT22;5977;51.972;7.640;2022-08-21T12:15:41;27.70;60.60
11836;DHT22;5977;51.972;7.640;2022-08-21T12:18:22;27.50;56.20
11836;DHT22;5977;51.972;7.640;2022-08-21T12:21:00;27.50;59.80
11836;DHT22;5977;51.972;7.640;2022-08-21T12:23:32;27.60;61.40
11836;DHT22;5977;51.972;7.640;2022-08-21T12:29:04;27.50;61.20
11836;DHT22;5977;51.972;7.640;2022-08-21T12:31:33;27.60;61.60
11836;DHT22;5977;51.972;7.640;2022-08-21T12:34:05;27.60;62.00
11836;DHT22;5977;51.972;7.640;2022-08-21T12:36:43;27.60;61.70
11836;DHT22;5977;51.972;7.640;2022-08-21T12:39:23;27.50;62.00
11836;DHT22;5977;51.972;7.640;2022-08-21T12:41:57;27.50;59.20
11836;DHT22;5977;51.972;7.640;2022-08-21T12:44:34;27.40;60.90
11836;DHT22;5977;51.972;7.640;2022-08-21T12:47:05;27.50;62.20
11836;DHT22;5977;51.972;7.640;2022-08-21T12:49:36;27.50;62.30
11836;DHT22;5977;51.972;7.640;2022-08-21T12:52:09;27.60;62.40
11836;DHT22;5977;51.972;7.640;2022-08-21T12:54:43;27.60;62.20
11836;DHT22;5977;51.972;7.640;2022-08-21T12:57:19;27.60;62.50
11836;DHT22;5977;51.972;7.640;2022-08-21T12:59:53;27.60;61.70
11836;DHT22;5977;51.972;7.640;2022-08-21T13:02:24;27.50;62.50
11836;DHT22;5977;51.972;7.640;2022-08-21T13:04:54;27.50;62.70
11836;DHT22;5977;51.972;7.640;2022-08-21T13:07:27;27.40;62.10
11836;DHT22;5977;51.972;7.640;2022-08-21T13:10:03;27.30;61.10
11836;DHT22;5977;51.972;7.640;2022-08-21T13:12:33;27.30;62.00
11836;DHT22;5977;51.972;7.640;2022-08-21T13:15:05;27.40;62.40
11836;DHT22;5977;51.972;7.640;2022-08-21T13:17:36;27.50;62.20
11836;DHT22;5977;51.972;7.640;2022-08-21T13:20:09;27.50;61.80
11836;DHT22;5977;51.972;7.640;2022-08-21T13:22:41;27.50;61.80
11836;DHT22;5977;51.972;7.640;2022-08-21T13:25:13;27.50;61.90
11836;DHT22;5977;51.972;7.640;2022-08-21T13:27:43;27.50;61.00
11836;DHT22;5977;51.972;7.640;2022-08-21T13:30:18;27.50;59.10
11836;DHT22;5977;51.972;7.640;2022-08-21T13:32:49;27.40;57.80
11836;DHT22;5977;51.972;7.640;2022-08-21T13:35:21;27.10;60.70
11836;DHT22;5977;51.972;7.640;2022-08-21T13:37:50;27.20;61.90
11836;DHT22;5977;51.972;7.640;2022-08-21T13:40:24;27.10;60.30
11836;DHT22;5977;51.972;7.640;2022-08-21T13:42:52;27.00;56.10
11836;DHT22;5977;51.972;7.640;2022-08-21T13:45:27;26.90;58.50
11836;DHT22;5977;51.972;7.640;2022-08-21T13:48:00;27.00;61.50
11836;DHT22;5977;51.972;7.640;2022-08-21T13:50:34;27.20;62.30
11836;DHT22;5977;51.972;7.640;2022-08-21T13:53:05;27.00;61.60
11836;DHT22;5977;51.972;7.640;2022-08-21T13:55:40;27.00;62.10
11836;DHT22;5977;51.972;7.640;2022-08-21T13:58:09;26.80;56.50
11836;DHT22;5977;51.972;7.640;2022-08-21T14:00:46;27.00;62.60
11836;DHT22;5977;51.972;7.640;2022-08-21T14:03:26;27.10;62.30
11836;DHT22;5977;51.972;7.640;2022-08-21T14:05:54;27.20;62.20
11836;DHT22;5977;51.972;7.640;2022-08-21T14:08:29;27.10;60.50
11836;DHT22;5977;51.972;7.640;2022-08-21T14:11:00;27.20;62.10
11836;DHT22;5977;51.972;7.640;2022-08-21T14:13:36;27.20;57.40
11836;DHT22;5977;51.972;7.640;2022-08-21T14:16:12;27.20;62.10
11836;DHT22;5977;51.972;7.640;2022-08-21T14:18:45;27.20;61.20
11836;DHT22;5977;51.972;7.640;2022-08-21T14:21:24;27.30;59.70
11836;DHT22;5977;51.972;7.640;2022-08-21T14:24:07;27.20;61.40
11836;DHT22;5977;51.972;7.640;2022-08-21T14:26:44;27.10;60.60
11836;DHT22;5977;51.972;7.640;2022-08-21T14:29:15;27.00;60.80
11836;DHT22;5977;51.972;7.640;2022-08-21T14:31:49;27.00;60.40
11836;DHT22;5977;51.972;7.640;2022-08-21T14:34:18;27.10;63.70
11836;DHT22;5977;51.972;7.640;2022-08-21T14:36:47;27.20;63.70
11836;DHT22;5977;51.972;7.640;2022-08-21T14:39:15;27.30;63.40
11836;DHT22;5977;51.972;7.640;2022-08-21T14:41:45;27.30;63.40
11836;DHT22;5977;51.972;7.640;2022-08-21T14:44:15;27.20;62.70
11836;DHT22;5977;51.972;7.640;2022-08-21T14:46:44;27.30;63.10
11836;DHT22;5977;51.972;7.640;2022-08-21T14:49:23;27.00;55.80
11836;DHT22;5977;51.972;7.640;2022-08-21T14:51:53;26.70;55.50
11836;DHT22;5977;51.972;7.640;2022-08-21T14:54:24;26.70;56.50
11836;DHT22;5977;51.972;7.640;2022-08-21T14:56:59;26.50;55.30
11836;DHT22;5977;51.972;7.640;2022-08-21T14:59:28;26.40;55.50
11836;DHT22;5977;51.972;7.640;2022-08-21T15:01:56;26.50;55.10
11836;DHT22;5977;51.972;7.640;2022-08-21T15:04:24;26.50;54.70
11836;DHT22;5977;51.972;7.640;2022-08-21T15:06:52;26.50;55.70
11836;DHT22;5977;51.972;7.640;2022-08-21T15:09:19;26.60;55.70
11836;DHT22;5977;51.972;7.640;2022-08-21T15:11:47;26.80;55.80
11836;DHT22;5977;51.972;7.640;2022-08-21T15:14:19;26.70;54.00
11836;DHT22;5977;51.972;7.640;2022-08-21T15:16:49;26.80;55.20
11836;DHT22;5977;51.972;7.640;2022-08-21T15:19:18;26.60;54.50
11836;DHT22;5977;51.972;7.640;2022-08-21T15:21:46;26.60;55.00
11836;DHT22;5977;51.972;7.640;2022-08-21T15:24:13;26.70;53.10
11836;DHT22;5977;51.972;7.640;2022-08-21T15:26:42;26.60;53.90
11836;DHT22;5977;51.972;7.640;2022-08-21T15:29:11;26.60;53.70
11836;DHT22;5977;51.972;7.640;2022-08-21T15:31:51;26.50;55.00
11836;DHT22;5977;51.972;7.640;2022-08-21T15:34:20;26.50;54.70
11836;DHT22;5977;51.972;7.640;2022-08-21T15:36:53;26.50;56.20
11836;DHT22;5977;51.972;7.640;2022-08-21T15:39:23;26.40;54.80
11836;DHT22;5977;51.972;7.640;2022-08-21T15:42:03;26.40;54.90
11836;DHT22;5977;51.972;7.640;2022-08-21T15:44:37;26.60;56.50
11836;DHT22;5977;51.972;7.640;2022-08-21T15:47:11;26.50;54.30
11836;DHT22;5977;51.972;7.640;2022-08-21T15:49:40;26.50;55.60
11836;DHT22;5977;51.972;7.640;2022-08-21T15:52:11;26.50;56.00
11836;DHT22;5977;51.972;7.640;2022-08-21T15:54:39;26.50;55.50
11836;DHT22;5977;51.972;7.640;2022-08-21T15:57:09;26.50;56.90
11836;DHT22;5977;51.972;7.640;2022-08-21T15:59:41;26.70;55.40
11836;DHT22;5977;51.972;7.640;2022-08-21T16:02:14;26.70;55.00
11836;DHT22;5977;51.972;7.640;2022-08-21T16:04:42;26.60;54.00
11836;DHT22;5977;51.972;7.640;2022-08-21T16:07:10;26.60;54.90
11836;DHT22;5977;51.972;7.640;2022-08-21T16:09:38;26.60;55.00
11836;DHT22;5977;51.972;7.640;2022-08-21T16:12:07;26.70;54.60
11836;DHT22;5977;51.972;7.640;2022-08-21T16:14:37;26.60;55.10
11836;DHT22;5977;51.972;7.640;2022-08-21T16:17:05;26.70;54.30
11836;DHT22;5977;51.972;7.640;2022-08-21T16:19:36;26.50;54.10